createdAt,value
2022-12-16T00:01:28.342Z,7.13
2022-12-16T00:03:57.429Z,7.60
2022-12-16T00:06:26.706Z,7.35
2022-12-16T00:08:53.714Z,7.40
2022-12-16T00:11:21.852Z,7.65
2022-12-16T00:13:48.589Z,7.38
2022-12-16T00:16:17.379Z,7.00
2022-12-16T00:18:45.200Z,7.57
2022-12-16T00:21:12.409Z,6.90
2022-12-16T00:23:39.414Z,6.70
2022-12-16T00:26:06.868Z,6.85
2022-12-16T00:28:34.365Z,7.05
2022-12-16T00:31:01.216Z,6.90
2022-12-16T00:33:28.789Z,6.80
2022-12-16T00:35:56.778Z,6.65
2022-12-16T00:38:25.823Z,6.45
2022-12-16T00:40:52.538Z,6.30
2022-12-16T00:43:20.142Z,6.67
2022-12-16T00:45:47.787Z,6.45
2022-12-16T00:48:15.453Z,6.47
2022-12-16T00:50:46.321Z,6.65
2022-12-16T00:53:13.052Z,6.20
2022-12-16T00:55:39.822Z,6.20
2022-12-16T00:58:06.551Z,6.07
2022-12-16T01:00:33.374Z,6.70
2022-12-16T01:03:00.306Z,6.07
2022-12-16T01:05:27.478Z,6.18
2022-12-16T01:07:55.030Z,6.10
2022-12-16T01:10:22.889Z,6.25
2022-12-16T01:12:49.918Z,6.57
2022-12-16T01:15:18.422Z,6.75
2022-12-16T01:17:45.795Z,6.32
2022-12-16T01:20:14.113Z,6.00
2022-12-16T01:22:41.286Z,6.60
2022-12-16T01:25:09.699Z,6.40
2022-12-16T01:27:36.442Z,6.38
2022-12-16T01:30:03.342Z,6.38
2022-12-16T01:32:30.228Z,6.32
2022-12-16T01:34:57.124Z,6.30
2022-12-16T01:37:24.420Z,5.85
2022-12-16T01:39:52.338Z,5.80
2022-12-16T01:42:22.227Z,5.83
2022-12-16T01:44:52.228Z,5.38
2022-12-16T01:47:25.489Z,5.65
2022-12-16T01:50:02.312Z,5.50
2022-12-16T01:52:38.570Z,5.65
2022-12-16T01:55:08.389Z,5.45
2022-12-16T01:57:45.675Z,5.30
2022-12-16T02:00:13.246Z,5.53
2022-12-16T02:02:44.824Z,5.20
2022-12-16T02:05:22.054Z,5.00
2022-12-16T02:08:19.113Z,4.70
2022-12-16T02:11:07.609Z,4.90
2022-12-16T02:13:52.263Z,4.50
2022-12-16T02:16:27.561Z,4.70
2022-12-16T02:19:17.028Z,4.35
2022-12-16T02:21:52.611Z,4.70
2022-12-16T02:24:30.265Z,4.47
2022-12-16T02:27:36.406Z,4.20
2022-12-16T02:30:21.981Z,3.83
2022-12-16T02:32:51.708Z,3.70
2022-12-16T02:35:25.247Z,3.83
2022-12-16T02:38:09.047Z,4.10
2022-12-16T02:40:43.890Z,3.65
2022-12-16T02:43:22.353Z,3.37
2022-12-16T02:45:50.163Z,3.67
2022-12-16T02:48:16.974Z,3.20
2022-12-16T02:50:49.062Z,3.60
2022-12-16T02:53:17.013Z,3.38
2022-12-16T02:55:59.730Z,3.00
2022-12-16T02:59:01.771Z,3.30
2022-12-16T03:01:35.754Z,3.13
2022-12-16T03:04:12.485Z,3.00
2022-12-16T03:06:43.915Z,3.10
2022-12-16T03:09:13.795Z,3.03
2022-12-16T03:11:43.145Z,3.00
2022-12-16T03:14:15.046Z,3.07
2022-12-16T03:16:42.659Z,2.85
2022-12-16T03:19:11.726Z,2.90
2022-12-16T03:22:09.071Z,2.60
2022-12-16T03:24:36.665Z,2.65
2022-12-16T03:27:10.267Z,2.88
2022-12-16T03:30:03.793Z,2.80
2022-12-16T03:32:39.544Z,2.53
2022-12-16T03:35:15.594Z,2.40
2022-12-16T03:37:44.502Z,2.88
2022-12-16T03:40:13.356Z,2.65
2022-12-16T03:42:42.137Z,2.70
2022-12-16T03:45:15.277Z,2.85
2022-12-16T03:47:42.769Z,2.80
2022-12-16T03:50:10.093Z,2.63
2022-12-16T03:52:37.244Z,2.80
2022-12-16T03:55:04.522Z,2.58
2022-12-16T03:57:31.241Z,2.50
2022-12-16T03:59:58.488Z,2.45
2022-12-16T04:02:25.888Z,2.60
2022-12-16T04:04:52.766Z,2.60
2022-12-16T04:07:24.330Z,2.90
2022-12-16T04:09:52.254Z,2.88
2022-12-16T04:12:39.126Z,2.80
2022-12-16T04:15:25.458Z,2.65
2022-12-16T04:18:11.210Z,2.60
2022-12-16T04:21:00.832Z,2.40
2022-12-16T04:23:47.120Z,2.55
2022-12-16T04:26:14.464Z,2.90
2022-12-16T04:28:41.423Z,2.60
2022-12-16T04:31:08.684Z,2.35
2022-12-16T04:33:56.590Z,2.78
2022-12-16T04:36:42.552Z,2.58
2022-12-16T04:39:28.849Z,2.58
2022-12-16T04:42:14.938Z,2.40
2022-12-16T04:45:00.333Z,2.67
2022-12-16T04:47:46.291Z,2.45
2022-12-16T04:50:32.503Z,2.53
2022-12-16T04:53:17.989Z,2.63
2022-12-16T04:56:04.715Z,2.80
2022-12-16T04:58:50.136Z,2.70
2022-12-16T05:01:36.008Z,2.50
2022-12-16T05:04:22.138Z,2.70
2022-12-16T05:07:08.184Z,2.58
2022-12-16T05:09:54.127Z,2.80
2022-12-16T05:12:40.185Z,2.40
2022-12-16T05:15:26.265Z,2.80
2022-12-16T05:18:11.890Z,2.90
2022-12-16T05:20:57.837Z,3.13
2022-12-16T05:23:43.924Z,3.03
2022-12-16T05:26:29.858Z,2.88
2022-12-16T05:29:15.423Z,3.40
2022-12-16T05:32:00.827Z,2.95
2022-12-16T05:34:46.869Z,2.88
2022-12-16T05:37:32.917Z,3.08
2022-12-16T05:40:18.416Z,2.97
2022-12-16T05:43:06.487Z,3.30
2022-12-16T05:45:52.593Z,2.92
2022-12-16T05:48:38.005Z,2.80
2022-12-16T05:51:24.929Z,3.00
2022-12-16T05:54:10.989Z,2.90
2022-12-16T05:56:56.452Z,3.00
2022-12-16T05:59:41.903Z,2.88
2022-12-16T06:02:27.464Z,2.95
2022-12-16T06:05:12.916Z,2.70
2022-12-16T06:07:58.374Z,3.00
2022-12-16T06:10:44.012Z,2.93
2022-12-16T06:13:30.476Z,2.75
2022-12-16T06:16:16.097Z,2.80
2022-12-16T06:19:01.453Z,3.00
2022-12-16T06:21:47.314Z,2.90
2022-12-16T06:24:33.362Z,3.00
2022-12-16T06:27:19.416Z,3.15
2022-12-16T06:30:05.111Z,3.13
2022-12-16T06:32:50.660Z,3.10
2022-12-16T06:35:36.218Z,3.38
2022-12-16T06:38:21.690Z,3.28
2022-12-16T06:41:07.230Z,3.30
2022-12-16T06:43:52.682Z,2.80
2022-12-16T06:46:38.361Z,3.50
2022-12-16T06:49:23.909Z,3.25
2022-12-16T06:52:09.759Z,3.50
2022-12-16T06:54:55.266Z,3.83
2022-12-16T06:57:40.642Z,3.90
2022-12-16T07:00:26.834Z,4.00
2022-12-16T07:03:12.777Z,4.05
2022-12-16T07:05:59.034Z,4.20
2022-12-16T07:09:04.281Z,4.15
2022-12-16T07:11:49.461Z,4.30
2022-12-16T07:14:34.902Z,4.32
2022-12-16T07:17:20.090Z,4.45
2022-12-16T07:20:05.517Z,4.68
2022-12-16T07:22:58.389Z,4.63
2022-12-16T07:25:48.658Z,4.38
2022-12-16T07:28:34.157Z,4.70
2022-12-16T07:31:19.680Z,5.15
2022-12-16T07:34:05.075Z,5.13
2022-12-16T07:36:50.618Z,5.40
2022-12-16T07:39:38.509Z,5.38
2022-12-16T07:42:23.856Z,8.33
2022-12-16T07:45:10.507Z,18.20
2022-12-16T07:47:56.756Z,16.88
2022-12-16T07:50:42.787Z,16.75
2022-12-16T07:53:31.361Z,15.65
2022-12-16T07:56:17.831Z,15.27
2022-12-16T07:59:03.943Z,14.23
2022-12-16T08:01:51.211Z,14.00
2022-12-16T08:04:36.446Z,40.83
2022-12-16T08:07:22.353Z,64.95
2022-12-16T08:10:09.674Z,64.00
2022-12-16T08:12:55.655Z,59.13
2022-12-16T08:15:40.979Z,53.42
2022-12-16T08:18:27.072Z,51.22
2022-12-16T08:21:13.076Z,47.70
2022-12-16T08:23:59.180Z,45.53
2022-12-16T08:26:45.235Z,43.55
2022-12-16T08:29:46.020Z,41.78
2022-12-16T08:32:37.238Z,39.75
2022-12-16T08:35:23.479Z,39.67
2022-12-16T08:38:14.146Z,38.03
2022-12-16T08:41:01.423Z,37.90
2022-12-16T08:43:51.295Z,37.10
2022-12-16T08:46:37.412Z,37.33
2022-12-16T08:49:24.815Z,37.45
2022-12-16T08:52:10.903Z,35.50
2022-12-16T08:54:56.761Z,34.33
2022-12-16T08:57:44.688Z,33.25
2022-12-16T09:00:31.629Z,33.28
2022-12-16T09:03:17.932Z,31.83
2022-12-16T09:06:04.385Z,30.95
2022-12-16T09:08:50.158Z,30.80
2022-12-16T09:11:36.478Z,30.38
2022-12-16T09:14:28.042Z,32.10
2022-12-16T09:17:14.530Z,34.05
2022-12-16T09:20:01.076Z,43.90
2022-12-16T09:22:47.519Z,66.60
2022-12-16T09:25:33.473Z,64.30
2022-12-16T09:28:19.793Z,61.45
2022-12-16T09:31:05.853Z,57.58
2022-12-16T09:33:51.507Z,56.30
2022-12-16T09:36:37.469Z,52.78
2022-12-16T09:39:23.524Z,50.95
2022-12-16T09:42:31.966Z,47.35
2022-12-16T09:45:30.846Z,45.38
2022-12-16T09:48:30.021Z,43.17
2022-12-16T09:51:17.370Z,41.00
2022-12-16T09:54:03.492Z,38.65
2022-12-16T09:56:52.161Z,46.80
2022-12-16T09:59:47.528Z,85.70
2022-12-16T10:02:35.654Z,85.40
2022-12-16T10:05:27.862Z,82.43
2022-12-16T10:08:43.273Z,79.05
2022-12-16T10:11:35.826Z,77.97
2022-12-16T10:14:38.804Z,74.38
2022-12-16T10:17:56.681Z,73.50
2022-12-16T10:20:54.310Z,72.05
2022-12-16T10:23:47.155Z,67.75
2022-12-16T10:26:58.532Z,65.97
2022-12-16T10:29:46.934Z,62.25
2022-12-16T10:32:40.526Z,60.20
2022-12-16T10:35:38.889Z,57.80
2022-12-16T10:38:33.018Z,57.10
2022-12-16T10:41:19.559Z,55.17
2022-12-16T10:44:06.550Z,54.05
2022-12-16T10:46:53.912Z,51.38
2022-12-16T10:49:41.487Z,50.08
2022-12-16T10:52:32.277Z,48.45
2022-12-16T10:56:03.830Z,48.22
2022-12-16T10:59:18.150Z,45.97
2022-12-16T11:02:44.702Z,43.88
2022-12-16T11:05:49.790Z,42.50
2022-12-16T11:08:43.917Z,42.47
2022-12-16T11:11:49.551Z,41.83
2022-12-16T11:14:59.566Z,40.00
2022-12-16T11:17:49.431Z,40.35
2022-12-16T11:20:36.663Z,39.88
2022-12-16T11:23:43.567Z,39.00
2022-12-16T11:26:37.535Z,36.85
2022-12-16T11:29:36.653Z,38.50
2022-12-16T11:32:42.695Z,37.75
2022-12-16T11:35:41.211Z,39.03
2022-12-16T11:38:37.402Z,40.58
2022-12-16T11:41:23.537Z,39.17
2022-12-16T11:44:11.710Z,39.38
2022-12-16T11:46:57.758Z,38.50
2022-12-16T11:49:49.187Z,39.33
2022-12-16T11:52:40.321Z,36.45
2022-12-16T11:56:03.596Z,38.17
2022-12-16T11:59:06.874Z,37.13
2022-12-16T12:02:10.689Z,36.53
2022-12-16T12:04:57.277Z,39.90
2022-12-16T12:07:51.402Z,37.40
2022-12-16T12:10:40.115Z,39.42
2022-12-16T12:13:47.215Z,39.25
2022-12-16T12:16:51.062Z,37.20
2022-12-16T12:19:44.323Z,37.53
2022-12-16T12:22:46.162Z,35.78
2022-12-16T12:25:42.812Z,35.42
2022-12-16T12:29:02.210Z,36.17
2022-12-16T12:32:10.738Z,34.08
2022-12-16T12:35:11.062Z,34.10
2022-12-16T12:38:05.183Z,31.60
2022-12-16T12:41:03.779Z,31.92
2022-12-16T12:43:54.891Z,32.58
2022-12-16T12:46:52.481Z,33.03
2022-12-16T12:49:53.578Z,31.92
2022-12-16T12:53:17.952Z,34.50
2022-12-16T12:56:10.913Z,38.55
2022-12-16T12:58:57.409Z,37.97
2022-12-16T13:01:48.664Z,37.95
2022-12-16T13:04:39.094Z,37.58
2022-12-16T13:07:25.105Z,40.55
2022-12-16T13:10:52.808Z,38.27
2022-12-16T13:13:38.880Z,36.80
2022-12-16T13:16:30.160Z,35.40
2022-12-16T13:19:49.895Z,35.15
2022-12-16T13:22:51.937Z,35.60
2022-12-16T13:25:57.962Z,34.45
2022-12-16T13:28:46.820Z,32.40
2022-12-16T13:31:33.134Z,33.33
2022-12-16T13:34:42.849Z,32.80
2022-12-16T13:37:39.029Z,32.28
2022-12-16T13:40:41.790Z,31.75
2022-12-16T13:44:02.155Z,31.50
2022-12-16T13:47:11.157Z,29.88
2022-12-16T13:50:03.793Z,28.67
2022-12-16T13:53:01.961Z,28.25
2022-12-16T13:55:56.907Z,26.85
2022-12-16T13:58:47.366Z,26.85
2022-12-16T14:01:39.925Z,26.90
2022-12-16T14:04:29.268Z,25.90
2022-12-16T14:07:24.264Z,24.20
2022-12-16T14:10:10.478Z,23.75
2022-12-16T14:13:11.004Z,23.88
2022-12-16T14:16:36.323Z,23.33
2022-12-16T14:19:33.215Z,22.40
2022-12-16T14:22:19.112Z,24.67
2022-12-16T14:25:05.105Z,24.10
2022-12-16T14:27:52.898Z,23.83
2022-12-16T14:30:45.306Z,23.00
2022-12-16T14:33:47.950Z,22.33
2022-12-16T14:36:42.658Z,21.33
2022-12-16T14:39:56.150Z,21.88
2022-12-16T14:42:46.887Z,20.98
2022-12-16T14:45:46.561Z,19.27
2022-12-16T14:48:54.079Z,18.52
2022-12-16T14:51:55.441Z,18.85
2022-12-16T14:55:00.859Z,17.90
2022-12-16T14:57:51.993Z,17.58
2022-12-16T15:00:40.536Z,16.98
2022-12-16T15:03:35.897Z,16.80
2022-12-16T15:06:41.021Z,16.70
2022-12-16T15:09:35.495Z,15.27
2022-12-16T15:12:22.576Z,15.50
2022-12-16T15:15:09.189Z,15.07
2022-12-16T15:18:14.486Z,16.50
2022-12-16T15:21:12.547Z,16.20
2022-12-16T15:23:59.682Z,15.45
2022-12-16T15:26:47.061Z,15.68
2022-12-16T15:29:51.483Z,15.57
2022-12-16T15:32:46.239Z,14.45
2022-12-16T15:35:51.879Z,14.33
2022-12-16T15:38:37.941Z,13.88
2022-12-16T15:41:24.611Z,12.95
2022-12-16T15:44:10.712Z,13.10
2022-12-16T15:46:56.600Z,12.73
2022-12-16T15:49:48.245Z,12.40
2022-12-16T15:52:52.465Z,11.93
2022-12-16T15:55:52.122Z,11.35
2022-12-16T15:58:40.029Z,11.32
2022-12-16T16:01:26.635Z,11.02
2022-12-16T16:04:14.427Z,11.15
2022-12-16T16:07:12.403Z,11.00
2022-12-16T16:09:58.702Z,10.50
2022-12-16T16:12:45.120Z,10.43
2022-12-16T16:15:32.179Z,10.67
2022-12-16T16:18:23.932Z,10.18
2022-12-16T16:21:10.684Z,10.40
2022-12-16T16:23:56.874Z,9.25
2022-12-16T16:26:46.163Z,9.50
2022-12-16T16:29:31.918Z,9.13
2022-12-16T16:32:17.778Z,9.40
2022-12-16T16:35:03.871Z,9.60
2022-12-16T16:37:49.619Z,8.93
2022-12-16T16:40:49.433Z,8.82
2022-12-16T16:43:35.782Z,8.43
2022-12-16T16:46:25.328Z,8.15
2022-12-16T16:49:11.469Z,8.65
2022-12-16T16:51:57.308Z,7.75
2022-12-16T16:54:43.153Z,7.47
2022-12-16T16:57:29.440Z,8.03
2022-12-16T17:00:15.229Z,7.60
2022-12-16T17:03:01.149Z,7.45
2022-12-16T17:05:54.650Z,7.28
2022-12-16T17:08:40.586Z,7.60
2022-12-16T17:11:36.924Z,6.80
2022-12-16T17:14:22.820Z,6.70
2022-12-16T17:17:08.524Z,6.50
2022-12-16T17:19:53.909Z,6.43
2022-12-16T17:22:39.278Z,6.70
2022-12-16T17:25:25.632Z,6.53
2022-12-16T17:28:11.323Z,6.70
2022-12-16T17:30:56.619Z,6.40
2022-12-16T17:33:42.348Z,6.50
2022-12-16T17:36:32.257Z,6.40
2022-12-16T17:39:17.678Z,6.20
2022-12-16T17:42:03.817Z,5.70
2022-12-16T17:44:49.609Z,5.40
2022-12-16T17:47:35.860Z,6.13
2022-12-16T17:50:22.066Z,6.20
2022-12-16T17:53:18.416Z,6.32
2022-12-16T17:56:04.227Z,6.38
2022-12-16T17:58:55.710Z,5.95
2022-12-16T18:01:42.672Z,6.40
2022-12-16T18:04:28.969Z,6.20
2022-12-16T18:07:15.162Z,5.75
2022-12-16T18:10:01.084Z,5.75
2022-12-16T18:12:46.791Z,6.47
2022-12-16T18:15:33.873Z,5.93
2022-12-16T18:18:19.139Z,6.05
2022-12-16T18:21:04.444Z,6.00
2022-12-16T18:23:50.270Z,5.78
2022-12-16T18:26:37.216Z,5.97
2022-12-16T18:29:22.411Z,5.68
2022-12-16T18:32:08.106Z,5.90
2022-12-16T18:34:53.918Z,5.83
2022-12-16T18:37:39.545Z,5.53
2022-12-16T18:40:27.354Z,5.07
2022-12-16T18:43:12.890Z,5.40
2022-12-16T18:45:58.760Z,5.60
2022-12-16T18:48:44.621Z,5.13
2022-12-16T18:51:30.488Z,5.03
2022-12-16T18:54:16.138Z,5.20
2022-12-16T18:57:01.545Z,5.07
2022-12-16T18:59:47.601Z,4.90
2022-12-16T19:02:33.071Z,5.22
2022-12-16T19:05:18.946Z,5.03
2022-12-16T19:08:04.168Z,4.93
2022-12-16T19:10:50.949Z,4.72
2022-12-16T19:13:36.746Z,4.68
2022-12-16T19:16:22.886Z,4.63
2022-12-16T19:19:09.149Z,4.45
2022-12-16T19:21:56.509Z,4.65
2022-12-16T19:24:43.200Z,4.93
2022-12-16T19:27:29.524Z,4.72
2022-12-16T19:30:15.263Z,4.90
2022-12-16T19:33:01.154Z,4.80
2022-12-16T19:35:47.964Z,4.82
2022-12-16T19:38:33.940Z,4.90
2022-12-16T19:41:19.960Z,4.60
2022-12-16T19:44:06.773Z,4.80
2022-12-16T19:49:58.719Z,4.70
2022-12-16T19:52:44.620Z,5.03
2022-12-16T19:55:30.517Z,4.85
2022-12-16T19:58:16.595Z,5.00
2022-12-16T20:01:03.262Z,5.47
2022-12-16T20:03:49.809Z,5.10
2022-12-16T20:06:35.395Z,4.90
2022-12-16T20:09:21.474Z,5.18
2022-12-16T20:12:10.715Z,5.22
2022-12-16T20:18:04.654Z,4.80
2022-12-16T20:20:50.364Z,4.90
2022-12-16T20:23:35.915Z,5.18
2022-12-16T20:26:21.938Z,4.87
2022-12-16T20:29:08.149Z,5.13
2022-12-16T20:35:00.024Z,5.40
2022-12-16T20:37:45.295Z,5.15
2022-12-16T20:40:30.760Z,5.35
2022-12-16T20:43:16.702Z,5.53
2022-12-16T20:46:01.966Z,5.60
2022-12-16T20:48:47.580Z,5.28
2022-12-16T20:51:34.189Z,5.43
2022-12-16T20:54:19.951Z,5.55
2022-12-16T20:57:08.290Z,5.88
2022-12-16T20:59:58.894Z,5.20
2022-12-16T21:02:44.332Z,5.50
2022-12-16T21:05:29.672Z,5.30
2022-12-16T21:08:14.946Z,4.80
2022-12-16T21:11:00.389Z,5.45
2022-12-16T21:13:46.090Z,5.35
2022-12-16T21:16:31.423Z,4.85
2022-12-16T21:19:18.002Z,5.07
2022-12-16T21:22:04.308Z,5.15
2022-12-16T21:24:49.462Z,5.43
2022-12-16T21:27:35.072Z,5.25
2022-12-16T21:30:21.246Z,5.47
2022-12-16T21:33:10.727Z,5.45
2022-12-16T21:35:56.526Z,5.20
2022-12-16T21:38:46.684Z,4.95
2022-12-16T21:41:32.722Z,5.18
2022-12-16T21:44:18.312Z,5.00
2022-12-16T21:47:04.121Z,4.72
2022-12-16T21:49:50.266Z,4.72
2022-12-16T21:52:35.820Z,4.93
2022-12-16T21:55:21.281Z,4.85
2022-12-16T21:58:07.090Z,4.85
2022-12-16T22:00:53.607Z,5.15
2022-12-16T22:03:51.116Z,4.70
2022-12-16T22:06:37.749Z,5.03
2022-12-16T22:09:23.648Z,4.95
2022-12-16T22:12:09.652Z,5.03
2022-12-16T22:14:54.832Z,4.95
2022-12-16T22:17:41.567Z,5.10
2022-12-16T22:20:42.114Z,5.05
2022-12-16T22:23:28.573Z,5.07
2022-12-16T22:26:15.572Z,5.45
2022-12-16T22:29:01.025Z,5.30
2022-12-16T22:31:46.899Z,5.37
2022-12-16T22:34:32.581Z,5.28
2022-12-16T22:37:18.096Z,4.88
2022-12-16T22:40:03.561Z,4.80
2022-12-16T22:42:49.188Z,4.93
2022-12-16T22:45:35.248Z,4.78
2022-12-16T22:48:21.217Z,5.15
2022-12-16T22:51:06.332Z,5.00
2022-12-16T22:53:51.856Z,5.15
2022-12-16T22:56:37.284Z,4.93
2022-12-16T22:59:22.799Z,4.80
2022-12-16T23:02:08.159Z,5.13
2022-12-16T23:04:54.105Z,5.07
2022-12-16T23:07:39.334Z,4.93
2022-12-16T23:10:25.071Z,4.97
2022-12-16T23:13:10.466Z,5.03
2022-12-16T23:19:01.736Z,5.45
2022-12-16T23:21:47.152Z,5.03
2022-12-16T23:24:32.890Z,5.07
2022-12-16T23:27:18.180Z,5.20
2022-12-16T23:30:23.321Z,4.80
2022-12-16T23:33:17.612Z,4.63
2022-12-16T23:36:02.950Z,5.03
2022-12-16T23:38:48.589Z,4.97
2022-12-16T23:41:33.869Z,5.20
2022-12-16T23:44:19.308Z,5.07
2022-12-16T23:47:04.849Z,4.93
2022-12-16T23:49:50.385Z,4.95
2022-12-16T23:52:35.843Z,5.20
2022-12-16T23:55:21.261Z,4.82
2022-12-16T23:58:06.874Z,4.88
